createdAt,value
2018-02-23T00:01:10.555Z,72.51
2018-02-23T00:03:39.176Z,72.64
2018-02-23T00:06:08.569Z,73.41
2018-02-23T00:08:37.200Z,73.14
2018-02-23T00:11:05.872Z,72.53
2018-02-23T00:13:34.487Z,72.61
2018-02-23T00:16:03.165Z,72.98
2018-02-23T00:18:32.649Z,72.80
2018-02-23T00:21:01.287Z,72.72
2018-02-23T00:23:29.921Z,72.86
2018-02-23T00:25:59.227Z,73.38
2018-02-23T00:28:27.892Z,73.11
2018-02-23T00:30:56.507Z,72.57
2018-02-23T00:33:25.114Z,72.69
2018-02-23T00:35:53.731Z,72.74
2018-02-23T00:38:24.460Z,73.46
2018-02-23T00:40:53.825Z,73.17
2018-02-23T00:43:22.422Z,72.96
2018-02-23T00:45:51.012Z,72.95
2018-02-23T00:48:20.370Z,73.12
2018-02-23T00:50:48.977Z,72.89
2018-02-23T00:53:17.641Z,72.51
2018-02-23T00:55:46.255Z,72.65
2018-02-23T00:58:15.056Z,73.23
2018-02-23T01:00:44.036Z,73.12
2018-02-23T01:03:12.637Z,72.83
2018-02-23T01:05:42.002Z,72.99
2018-02-23T01:08:10.731Z,72.49
2018-02-23T01:10:39.395Z,72.50
2018-02-23T01:13:08.015Z,72.58
2018-02-23T01:15:36.613Z,72.51
2018-02-23T01:18:05.208Z,73.03
2018-02-23T01:20:33.832Z,73.26
2018-02-23T01:23:02.440Z,72.82
2018-02-23T01:25:32.375Z,72.60
2018-02-23T01:28:01.203Z,71.90
2018-02-23T01:30:30.172Z,72.16
2018-02-23T01:32:58.787Z,71.95
2018-02-23T01:35:27.477Z,72.36
2018-02-23T01:37:56.291Z,72.83
2018-02-23T01:40:24.947Z,72.93
2018-02-23T01:42:53.599Z,73.20
2018-02-23T01:45:22.180Z,72.04
2018-02-23T01:47:51.772Z,72.10
2018-02-23T01:50:20.384Z,72.10
2018-02-23T01:52:48.997Z,72.17
2018-02-23T01:55:17.648Z,73.05
2018-02-23T01:57:46.272Z,72.78
2018-02-23T02:00:16.023Z,72.72
2018-02-23T02:02:44.637Z,72.78
2018-02-23T02:05:13.248Z,72.17
2018-02-23T02:07:41.984Z,72.94
2018-02-23T02:10:10.632Z,72.21
2018-02-23T02:12:40.719Z,72.41
2018-02-23T02:15:09.317Z,72.90
2018-02-23T02:17:38.401Z,72.53
2018-02-23T02:20:07.332Z,72.44
2018-02-23T02:22:35.927Z,72.51
2018-02-23T02:25:04.510Z,73.29
2018-02-23T02:27:33.148Z,73.08
2018-02-23T02:30:02.490Z,72.35
2018-02-23T02:32:32.645Z,73.01
2018-02-23T02:35:01.254Z,72.72
2018-02-23T02:37:29.878Z,73.19
2018-02-23T02:39:58.540Z,72.26
2018-02-23T02:42:27.945Z,72.98
2018-02-23T02:44:57.733Z,72.97
2018-02-23T02:47:26.635Z,72.85
2018-02-23T02:49:55.247Z,74.20
2018-02-23T02:52:23.885Z,73.54
2018-02-23T02:54:52.517Z,73.81
2018-02-23T02:57:21.170Z,74.22
2018-02-23T02:59:49.788Z,73.73
2018-02-23T03:02:18.384Z,74.54
2018-02-23T03:04:47.089Z,74.51
2018-02-23T03:07:15.672Z,74.27
2018-02-23T03:09:44.407Z,73.28
2018-02-23T03:12:13.820Z,73.77
2018-02-23T03:14:43.204Z,74.19
2018-02-23T03:17:11.863Z,74.05
2018-02-23T03:19:40.482Z,74.28
2018-02-23T03:22:09.924Z,74.52
2018-02-23T03:24:38.617Z,74.66
2018-02-23T03:27:07.218Z,74.47
2018-02-23T03:29:35.825Z,74.68
2018-02-23T03:32:05.328Z,75.06
2018-02-23T03:34:33.991Z,74.69
2018-02-23T03:37:03.359Z,74.90
2018-02-23T03:39:32.028Z,75.41
2018-02-23T03:42:00.708Z,75.21
2018-02-23T03:44:30.102Z,75.22
2018-02-23T03:46:58.779Z,75.21
2018-02-23T03:49:27.405Z,75.70
2018-02-23T03:51:56.100Z,75.12
2018-02-23T03:54:24.739Z,75.19
2018-02-23T03:56:54.917Z,74.55
2018-02-23T03:59:23.600Z,74.84
2018-02-23T04:01:52.241Z,75.67
2018-02-23T04:04:21.632Z,75.28
2018-02-23T04:06:51.083Z,75.15
2018-02-23T04:09:19.953Z,75.17
2018-02-23T04:11:48.657Z,75.27
2018-02-23T04:14:17.320Z,75.11
2018-02-23T04:16:45.952Z,75.19
2018-02-23T04:19:14.550Z,75.33
2018-02-23T04:21:43.962Z,74.98
2018-02-23T04:24:13.384Z,75.10
2018-02-23T04:26:42.841Z,74.99
2018-02-23T04:29:11.480Z,75.67
2018-02-23T04:31:40.162Z,75.41
2018-02-23T04:34:08.795Z,74.77
2018-02-23T04:36:37.496Z,75.16
2018-02-23T04:39:06.193Z,75.51
2018-02-23T04:41:34.833Z,75.39
2018-02-23T04:44:04.267Z,75.23
2018-02-23T04:46:33.310Z,74.67
2018-02-23T04:49:01.995Z,75.54
2018-02-23T04:51:30.621Z,74.41
2018-02-23T04:53:59.245Z,74.77
2018-02-23T04:56:28.637Z,75.05
2018-02-23T04:58:57.259Z,75.09
2018-02-23T05:01:25.930Z,75.52
2018-02-23T05:03:54.538Z,75.54
2018-02-23T05:06:23.920Z,74.61
2018-02-23T05:08:52.860Z,74.28
2018-02-23T05:11:22.377Z,74.94
2018-02-23T05:13:51.787Z,74.56
2018-02-23T05:16:20.496Z,75.05
2018-02-23T05:18:49.158Z,74.85
2018-02-23T05:21:20.508Z,75.12
2018-02-23T05:23:52.478Z,74.70
2018-02-23T05:26:22.132Z,74.59
2018-02-23T05:28:50.860Z,74.76
2018-02-23T05:31:20.336Z,74.00
2018-02-23T05:33:48.982Z,74.78
2018-02-23T05:36:17.644Z,73.95
2018-02-23T05:38:47.121Z,74.02
2018-02-23T05:41:15.732Z,74.01
2018-02-23T05:43:44.427Z,74.77
2018-02-23T05:46:13.021Z,74.46
2018-02-23T05:48:41.723Z,73.98
2018-02-23T05:51:10.420Z,73.46
2018-02-23T05:53:39.176Z,73.71
2018-02-23T05:56:07.858Z,73.70
2018-02-23T05:58:36.549Z,75.19
2018-02-23T06:01:05.183Z,74.26
2018-02-23T06:03:33.852Z,74.67
2018-02-23T06:06:02.539Z,74.61
2018-02-23T06:08:31.140Z,74.75
2018-02-23T06:10:59.792Z,74.59
2018-02-23T06:13:28.520Z,74.29
2018-02-23T06:16:02.740Z,74.00
2018-02-23T06:18:37.481Z,74.56
2018-02-23T06:21:06.873Z,74.69
2018-02-23T06:23:36.251Z,74.60
2018-02-23T06:26:04.860Z,74.61
2018-02-23T06:28:34.200Z,74.31
2018-02-23T06:31:02.824Z,73.57
2018-02-23T06:33:31.468Z,73.73
2018-02-23T06:36:00.087Z,73.83
2018-02-23T06:38:28.684Z,74.28
2018-02-23T06:40:57.319Z,73.30
2018-02-23T06:43:25.936Z,74.03
2018-02-23T06:45:54.625Z,73.16
2018-02-23T06:48:23.235Z,73.63
2018-02-23T06:50:52.629Z,74.00
2018-02-23T06:53:21.226Z,74.04
2018-02-23T06:55:49.839Z,74.72
2018-02-23T06:58:18.504Z,74.89
2018-02-23T07:00:47.877Z,74.73
2018-02-23T07:03:16.453Z,74.84
2018-02-23T07:05:45.044Z,73.90
2018-02-23T07:08:14.445Z,74.48
2018-02-23T07:10:43.108Z,74.29
2018-02-23T07:13:11.711Z,74.13
2018-02-23T07:15:40.339Z,74.16
2018-02-23T07:18:08.973Z,74.04
2018-02-23T07:20:37.583Z,73.69
2018-02-23T07:23:07.040Z,73.99
2018-02-23T07:25:35.696Z,73.99
2018-02-23T07:28:05.084Z,73.54
2018-02-23T07:30:34.572Z,73.22
2018-02-23T07:33:04.012Z,73.25
2018-02-23T07:35:32.700Z,77.01
2018-02-23T07:38:01.326Z,72.70
2018-02-23T07:40:29.950Z,73.13
2018-02-23T07:42:58.586Z,73.49
2018-02-23T07:45:27.222Z,73.36
2018-02-23T07:47:55.971Z,73.38
2018-02-23T07:50:24.640Z,72.78
2018-02-23T07:52:53.247Z,73.06
2018-02-23T07:55:21.915Z,72.24
2018-02-23T07:57:50.586Z,72.81
2018-02-23T08:00:19.289Z,72.23
2018-02-23T08:02:47.944Z,73.04
2018-02-23T08:05:16.644Z,72.80
2018-02-23T08:07:45.288Z,72.13
2018-02-23T08:10:13.910Z,72.52
2018-02-23T08:12:42.587Z,71.77
2018-02-23T08:15:11.264Z,72.14
2018-02-23T08:17:39.870Z,72.57
2018-02-23T08:20:08.483Z,72.15
2018-02-23T08:22:37.924Z,71.88
2018-02-23T08:25:06.592Z,72.05
2018-02-23T08:27:35.205Z,71.93
2018-02-23T08:30:03.870Z,72.57
2018-02-23T08:32:32.494Z,71.62
2018-02-23T08:35:01.144Z,71.67
2018-02-23T08:37:29.801Z,71.47
2018-02-23T08:39:59.184Z,70.76
2018-02-23T08:42:27.812Z,70.60
2018-02-23T08:44:56.465Z,70.95
2018-02-23T08:47:25.835Z,70.94
2018-02-23T08:49:54.529Z,71.06
2018-02-23T08:52:23.201Z,70.46
2018-02-23T08:54:51.880Z,70.30
2018-02-23T08:57:20.563Z,70.47
2018-02-23T08:59:49.213Z,70.16
2018-02-23T09:02:17.930Z,69.70
2018-02-23T09:04:46.585Z,70.52
2018-02-23T09:07:15.284Z,69.46
2018-02-23T09:09:43.909Z,69.05
2018-02-23T09:12:12.518Z,69.26
2018-02-23T09:14:42.056Z,69.68
2018-02-23T09:17:10.681Z,69.19
2018-02-23T09:19:39.400Z,68.29
2018-02-23T09:22:08.826Z,68.87
2018-02-23T09:24:37.440Z,69.26
2018-02-23T09:27:06.104Z,69.19
2018-02-23T09:29:34.715Z,69.34
2018-02-23T09:32:03.572Z,68.12
2018-02-23T09:34:42.949Z,68.97
2018-02-23T09:37:11.572Z,68.58
2018-02-23T09:39:41.000Z,68.21
2018-02-23T09:42:09.632Z,67.67
2018-02-23T09:44:38.273Z,68.29
2018-02-23T09:47:06.920Z,68.14
2018-02-23T09:49:36.326Z,67.93
2018-02-23T09:52:05.783Z,67.21
2018-02-23T09:54:34.428Z,66.72
2018-02-23T09:57:03.062Z,66.69
2018-02-23T09:59:31.690Z,65.92
2018-02-23T10:02:00.332Z,66.99
2018-02-23T10:04:29.021Z,67.34
2018-02-23T10:06:57.665Z,67.31
2018-02-23T10:09:26.307Z,66.94
2018-02-23T10:11:55.673Z,66.57
2018-02-23T10:14:24.329Z,67.03
2018-02-23T10:16:53.054Z,66.88
2018-02-23T10:19:21.688Z,67.28
2018-02-23T10:21:50.313Z,67.09
2018-02-23T10:24:18.963Z,66.87
2018-02-23T10:26:47.610Z,66.79
2018-02-23T10:29:16.293Z,66.60
2018-02-23T10:31:44.905Z,66.11
2018-02-23T10:34:14.311Z,66.70
2018-02-23T10:36:42.990Z,66.57
2018-02-23T10:39:12.410Z,66.31
2018-02-23T10:41:41.105Z,65.76
2018-02-23T10:44:09.815Z,65.23
2018-02-23T10:46:38.444Z,65.40
2018-02-23T10:49:07.924Z,65.26
2018-02-23T10:51:36.553Z,65.07
2018-02-23T10:54:05.750Z,64.75
2018-02-23T10:56:34.400Z,65.56
2018-02-23T10:59:03.083Z,64.83
2018-02-23T11:01:31.721Z,64.70
2018-02-23T11:04:00.348Z,64.68
2018-02-23T11:06:29.000Z,64.49
2018-02-23T11:08:57.592Z,64.25
2018-02-23T11:11:26.349Z,64.31
2018-02-23T11:13:54.977Z,63.19
2018-02-23T11:16:23.572Z,62.70
2018-02-23T11:18:52.229Z,63.10
2018-02-23T11:21:20.822Z,63.15
2018-02-23T11:23:49.404Z,63.70
2018-02-23T11:26:18.116Z,63.21
2018-02-23T11:28:47.545Z,63.11
2018-02-23T11:31:16.133Z,63.18
2018-02-23T11:33:44.756Z,62.97
2018-02-23T11:36:13.371Z,62.47
2018-02-23T11:38:42.789Z,63.77
2018-02-23T11:41:12.173Z,62.75
2018-02-23T11:43:41.560Z,63.45
2018-02-23T11:46:10.246Z,62.73
2018-02-23T11:48:38.869Z,62.76
2018-02-23T11:51:07.496Z,62.73
2018-02-23T11:53:36.157Z,62.78
2018-02-23T11:56:04.770Z,62.02
2018-02-23T11:58:33.433Z,62.31
2018-02-23T12:01:02.053Z,62.29
2018-02-23T12:03:30.645Z,61.78
2018-02-23T12:06:00.122Z,62.32
2018-02-23T12:08:28.751Z,61.98
2018-02-23T12:10:57.441Z,62.55
2018-02-23T12:13:26.831Z,61.91
2018-02-23T12:15:55.433Z,62.52
2018-02-23T12:18:24.022Z,61.84
2018-02-23T12:20:52.633Z,61.78
2018-02-23T12:23:21.230Z,62.11
2018-02-23T12:25:49.844Z,62.47
2018-02-23T12:28:18.448Z,62.46
2018-02-23T12:30:47.827Z,61.46
2018-02-23T12:33:16.425Z,61.89
2018-02-23T12:35:45.828Z,61.63
2018-02-23T12:38:15.213Z,61.42
2018-02-23T12:40:43.834Z,61.71
2018-02-23T12:43:12.489Z,61.64
2018-02-23T12:45:41.915Z,62.10
2018-02-23T12:48:10.538Z,61.82
2018-02-23T12:50:39.210Z,62.14
2018-02-23T12:53:07.866Z,62.12
2018-02-23T12:55:36.503Z,62.11
2018-02-23T12:58:05.089Z,61.72
2018-02-23T13:00:33.689Z,61.00
2018-02-23T13:03:02.264Z,61.12
2018-02-23T13:05:30.901Z,60.39
2018-02-23T13:07:59.516Z,60.73
2018-02-23T13:10:28.220Z,60.68
2018-02-23T13:12:56.820Z,60.09
2018-02-23T13:15:26.193Z,60.74
2018-02-23T13:17:54.833Z,61.39
2018-02-23T13:20:23.432Z,61.67
2018-02-23T13:22:52.822Z,61.93
2018-02-23T13:25:21.482Z,60.71
2018-02-23T13:27:56.436Z,60.87
2018-02-23T13:30:25.115Z,60.30
2018-02-23T13:32:53.761Z,61.58
2018-02-23T13:35:22.445Z,62.04
2018-02-23T13:37:51.081Z,61.03
2018-02-23T13:40:19.751Z,62.14
2018-02-23T13:42:48.449Z,62.33
2018-02-23T13:45:17.075Z,62.32
2018-02-23T13:47:45.694Z,63.30
2018-02-23T13:50:14.293Z,63.22
2018-02-23T13:52:43.013Z,63.33
2018-02-23T13:55:11.625Z,63.02
2018-02-23T13:57:40.236Z,63.17
2018-02-23T14:00:09.169Z,62.66
2018-02-23T14:02:37.793Z,62.04
2018-02-23T14:05:07.333Z,62.82
2018-02-23T14:07:36.032Z,62.77
2018-02-23T14:10:04.704Z,62.60
2018-02-23T14:12:33.373Z,63.20
2018-02-23T14:15:02.026Z,63.02
2018-02-23T14:17:30.688Z,62.21
2018-02-23T14:19:59.319Z,62.13
2018-02-23T14:22:28.768Z,62.54
2018-02-23T14:24:58.137Z,61.07
2018-02-23T14:27:26.742Z,62.10
2018-02-23T14:29:55.412Z,62.18
2018-02-23T14:32:24.025Z,62.79
2018-02-23T14:34:52.667Z,62.87
2018-02-23T14:37:22.089Z,62.53
2018-02-23T14:39:50.710Z,62.39
2018-02-23T14:42:19.361Z,62.71
2018-02-23T14:44:48.008Z,63.61
2018-02-23T14:47:18.052Z,62.84
2018-02-23T14:50:04.512Z,63.08
2018-02-23T14:52:33.108Z,63.55
2018-02-23T14:55:01.974Z,63.73
2018-02-23T14:57:30.633Z,64.07
2018-02-23T14:59:59.223Z,64.27
2018-02-23T15:02:28.120Z,63.92
2018-02-23T15:04:56.820Z,64.11
2018-02-23T15:07:25.456Z,63.82
2018-02-23T15:09:54.141Z,64.28
2018-02-23T15:12:22.860Z,64.71
2018-02-23T15:14:51.457Z,64.56
2018-02-23T15:17:20.064Z,64.43
2018-02-23T15:19:48.745Z,65.26
2018-02-23T15:22:17.570Z,64.80
2018-02-23T15:24:46.254Z,65.53
2018-02-23T15:27:14.851Z,65.50
2018-02-23T15:29:43.505Z,66.01
2018-02-23T15:32:31.452Z,65.72
2018-02-23T15:35:00.879Z,65.95
2018-02-23T15:37:29.492Z,65.84
2018-02-23T15:39:58.118Z,66.52
2018-02-23T15:42:27.536Z,66.50
2018-02-23T15:44:56.204Z,66.03
2018-02-23T15:47:30.522Z,67.03
2018-02-23T15:50:01.669Z,67.25
2018-02-23T15:52:31.113Z,66.81
2018-02-23T15:54:59.788Z,67.11
2018-02-23T15:57:30.323Z,67.25
2018-02-23T15:59:59.060Z,67.44
2018-02-23T16:02:28.514Z,67.59
2018-02-23T16:04:57.264Z,67.13
2018-02-23T16:07:25.987Z,67.73
2018-02-23T16:09:54.634Z,67.54
2018-02-23T16:12:24.095Z,67.78
2018-02-23T16:14:52.783Z,67.89
2018-02-23T16:17:21.465Z,67.87
2018-02-23T16:19:50.089Z,68.12
2018-02-23T16:22:19.480Z,68.55
2018-02-23T16:24:48.904Z,68.31
2018-02-23T16:27:18.252Z,69.08
2018-02-23T16:29:46.889Z,69.17
2018-02-23T16:32:16.339Z,69.50
2018-02-23T16:34:45.002Z,69.62
2018-02-23T16:37:13.669Z,69.35
2018-02-23T16:39:42.364Z,69.55
2018-02-23T16:42:10.935Z,69.24
2018-02-23T16:44:39.573Z,69.53
2018-02-23T16:47:08.215Z,69.69
2018-02-23T16:49:37.092Z,69.25
2018-02-23T16:52:05.728Z,69.72
2018-02-23T16:54:34.350Z,69.68
2018-02-23T16:57:02.969Z,70.07
2018-02-23T16:59:31.635Z,69.47
2018-02-23T17:02:00.312Z,70.44
2018-02-23T17:04:28.911Z,70.48
2018-02-23T17:06:57.548Z,70.13
2018-02-23T17:09:26.218Z,69.45
2018-02-23T17:11:54.856Z,70.46
2018-02-23T17:14:23.488Z,70.57
2018-02-23T17:16:52.845Z,70.75
2018-02-23T17:19:21.520Z,70.70
2018-02-23T17:21:50.116Z,70.42
2018-02-23T17:24:18.749Z,70.84
2018-02-23T17:26:47.383Z,70.46
2018-02-23T17:29:16.019Z,70.51
2018-02-23T17:31:44.709Z,71.02
2018-02-23T17:34:13.344Z,70.43
2018-02-23T17:36:41.986Z,70.91
2018-02-23T17:39:13.370Z,70.62
2018-02-23T17:41:42.273Z,70.78
2018-02-23T17:44:11.015Z,70.78
2018-02-23T17:46:40.450Z,70.28
2018-02-23T17:49:09.085Z,71.10
2018-02-23T17:51:37.748Z,70.76
2018-02-23T17:54:06.394Z,71.34
2018-02-23T17:56:35.739Z,71.06
2018-02-23T17:59:04.497Z,70.99
2018-02-23T18:01:33.226Z,71.22
2018-02-23T18:04:01.908Z,70.89
2018-02-23T18:06:30.576Z,70.95
2018-02-23T18:08:59.179Z,70.72
2018-02-23T18:11:28.036Z,71.01
2018-02-23T18:13:57.427Z,70.98
2018-02-23T18:16:26.092Z,71.31
2018-02-23T18:18:54.817Z,71.31
2018-02-23T18:21:23.434Z,71.30
2018-02-23T18:23:52.062Z,70.82
2018-02-23T18:26:20.618Z,70.85
2018-02-23T18:28:50.025Z,70.70
2018-02-23T18:31:19.412Z,71.12
2018-02-23T18:33:48.764Z,71.16
2018-02-23T18:36:17.392Z,70.78
2018-02-23T18:38:45.993Z,71.34
2018-02-23T18:41:15.353Z,71.86
2018-02-23T18:43:43.974Z,71.80
2018-02-23T18:46:12.574Z,71.54
2018-02-23T18:48:42.030Z,71.34
2018-02-23T18:51:10.627Z,71.82
2018-02-23T18:53:39.273Z,71.71
2018-02-23T18:56:07.912Z,71.41
2018-02-23T18:58:37.325Z,71.65
2018-02-23T19:01:06.698Z,71.71
2018-02-23T19:03:35.437Z,71.61
2018-02-23T19:06:04.133Z,72.19
2018-02-23T19:08:32.782Z,71.80
2018-02-23T19:11:02.205Z,72.17
2018-02-23T19:13:30.867Z,72.35
2018-02-23T19:16:00.285Z,72.35
2018-02-23T19:18:28.929Z,72.76
2018-02-23T19:20:57.524Z,72.46
2018-02-23T19:23:27.270Z,72.18
2018-02-23T19:25:56.036Z,72.95
2018-02-23T19:28:25.473Z,72.57
2018-02-23T19:30:54.169Z,72.29
2018-02-23T19:33:22.845Z,72.36
2018-02-23T19:35:51.601Z,72.49
2018-02-23T19:38:21.165Z,72.39
2018-02-23T19:40:49.836Z,72.37
2018-02-23T19:43:18.477Z,72.40
2018-02-23T19:45:47.925Z,72.15
2018-02-23T19:48:16.628Z,72.12
2018-02-23T19:50:45.284Z,72.52
2018-02-23T19:53:13.929Z,72.15
2018-02-23T19:55:43.352Z,72.31
2018-02-23T19:58:12.027Z,72.09
2018-02-23T20:00:43.042Z,72.28
2018-02-23T20:03:12.525Z,71.73
2018-02-23T20:05:41.234Z,72.13
2018-02-23T20:08:10.679Z,71.79
2018-02-23T20:10:39.305Z,71.89
2018-02-23T20:13:07.932Z,72.07
2018-02-23T20:15:36.598Z,72.35
2018-02-23T20:18:06.030Z,72.05
2018-02-23T20:20:34.685Z,72.03
2018-02-23T20:23:04.133Z,72.21
2018-02-23T20:25:32.795Z,72.63
2018-02-23T20:28:01.446Z,72.53
2018-02-23T20:30:30.108Z,72.33
2018-02-23T20:32:58.747Z,72.04
2018-02-23T20:35:27.410Z,72.42
2018-02-23T20:37:56.064Z,73.02
2018-02-23T20:40:24.726Z,72.78
2018-02-23T20:42:53.384Z,73.14
2018-02-23T20:45:22.035Z,73.11
2018-02-23T20:47:51.531Z,72.34
2018-02-23T20:50:20.192Z,72.65
2018-02-23T20:52:48.846Z,72.52
2018-02-23T20:55:17.487Z,71.94
2018-02-23T20:57:46.185Z,72.29
2018-02-23T21:00:14.829Z,71.99
2018-02-23T21:02:43.463Z,72.22
2018-02-23T21:05:12.873Z,71.92
2018-02-23T21:07:42.243Z,72.70
2018-02-23T21:10:10.956Z,72.39
2018-02-23T21:12:40.372Z,72.60
2018-02-23T21:15:09.783Z,72.26
2018-02-23T21:17:38.466Z,71.83
2018-02-23T21:20:07.979Z,72.71
2018-02-23T21:22:36.625Z,71.81
2018-02-23T21:25:05.240Z,71.75
2018-02-23T21:27:34.009Z,72.54
2018-02-23T21:30:03.432Z,71.81
2018-02-23T21:32:32.016Z,72.46
2018-02-23T21:35:00.545Z,72.75
2018-02-23T21:37:29.118Z,72.97
2018-02-23T21:39:57.720Z,72.67
2018-02-23T21:42:26.274Z,71.93
2018-02-23T21:44:54.806Z,71.65
2018-02-23T21:47:24.170Z,71.98
2018-02-23T21:49:52.853Z,72.17
2018-02-23T21:52:21.415Z,72.24
2018-02-23T21:54:50.276Z,72.80
2018-02-23T21:57:19.631Z,72.74
2018-02-23T21:59:48.211Z,72.85
2018-02-23T22:02:16.842Z,72.26
2018-02-23T22:04:46.323Z,72.10
2018-02-23T22:07:15.675Z,72.20
2018-02-23T22:09:44.298Z,73.29
2018-02-23T22:12:12.868Z,72.56
2018-02-23T22:14:41.455Z,72.66
2018-02-23T22:17:10.074Z,72.15
2018-02-23T22:19:38.652Z,72.47
2018-02-23T22:22:08.006Z,72.14
2018-02-23T22:24:36.971Z,73.02
2018-02-23T22:27:05.561Z,72.94
2018-02-23T22:29:34.128Z,72.48
2018-02-23T22:32:02.758Z,72.01
2018-02-23T22:34:31.499Z,72.07
2018-02-23T22:37:00.828Z,72.97
2018-02-23T22:39:29.460Z,72.58
2018-02-23T22:41:58.020Z,72.84
2018-02-23T22:44:26.582Z,72.22
2018-02-23T22:46:55.180Z,72.17
2018-02-23T22:49:23.776Z,72.43
2018-02-23T22:51:52.360Z,72.24
2018-02-23T22:54:20.913Z,72.62
2018-02-23T22:56:49.447Z,72.17
2018-02-23T22:59:18.808Z,72.73
2018-02-23T23:01:47.339Z,73.39
2018-02-23T23:04:16.698Z,72.74
2018-02-23T23:06:45.240Z,72.37
2018-02-23T23:09:13.780Z,73.20
2018-02-23T23:11:42.346Z,73.29
2018-02-23T23:14:10.899Z,72.43
2018-02-23T23:16:39.490Z,72.41
2018-02-23T23:19:08.036Z,72.28
2018-02-23T23:21:37.380Z,72.53
2018-02-23T23:24:05.912Z,72.06
2018-02-23T23:26:35.277Z,72.96
2018-02-23T23:29:03.892Z,72.11
2018-02-23T23:31:33.223Z,72.14
2018-02-23T23:34:01.956Z,72.60
2018-02-23T23:36:31.381Z,72.78
2018-02-23T23:38:59.900Z,72.58
2018-02-23T23:41:28.498Z,73.33
2018-02-23T23:43:57.698Z,73.20
2018-02-23T23:46:26.252Z,72.51
2018-02-23T23:48:54.812Z,72.28
2018-02-23T23:51:24.133Z,73.59
2018-02-23T23:53:52.721Z,72.46
2018-02-23T23:56:21.270Z,72.79
2018-02-23T23:58:49.849Z,72.44
